Time;durP1;ratioP1;P1;durP2;ratioP2;P2;SDS_P1;SDS_P2;PMS_P1;PMS_P2;Temp;Humidity;BMP_temperature;BMP_pressure;BME280_temperature;BME280_humidity;BME280_pressure;Samples;Min_cycle;Max_cycle;Signal;HPM_P1;HPM_P2
2023/08/17 00:04:01;;;;;;;2.85;1.23;;;;;;;23.03;46.32;101840.16;16109192;19;130035;-57
2023/08/17 00:09:24;;;;;;;2.72;1.25;;;;;;;23.03;46.32;101828.16;16107881;19;131588;-54
2023/08/17 00:14:46;;;;;;;8.10;1.50;;;;;;;23.02;46.32;101838.44;16108432;19;130864;-53
2023/08/17 00:20:09;;;;;;;3.08;1.30;;;;;;;23.02;46.28;101837.63;16105757;19;129584;-53
2023/08/17 00:25:31;;;;;;;3.67;1.35;;;;;;;23.01;45.98;101844.31;16104891;19;130356;-56
2023/08/17 00:30:53;;;;;;;2.25;1.00;;;;;;;23.01;46.33;101839.59;16107712;19;130279;-51
2023/08/17 00:36:15;;;;;;;2.67;1.00;;;;;;;23.00;46.47;101835.09;16103232;19;130628;-56
2023/08/17 00:41:37;;;;;;;3.05;1.15;;;;;;;23.00;46.29;101849.06;16108479;19;128941;-53
2023/08/17 00:46:59;;;;;;;3.85;1.00;;;;;;;22.99;46.28;101843.69;16111244;19;130801;-54
2023/08/17 00:52:21;;;;;;;1.67;1.05;;;;;;;22.99;46.32;101844.56;16121842;19;129402;-55
2023/08/17 00:57:43;;;;;;;2.30;1.10;;;;;;;22.98;46.29;101847.59;16123689;19;131231;-56
2023/08/17 01:03:05;;;;;;;2.97;1.25;;;;;;;22.98;46.37;101859.63;16124148;19;131198;-53
2023/08/17 01:08:29;;;;;;;2.00;1.23;;;;;;;22.98;46.34;101862.41;16115001;19;130707;-55
2023/08/17 01:13:57;;;;;;;1.80;1.10;;;;;;;22.97;46.12;101843.97;16117159;19;130807;-53
2023/08/17 01:19:27;;;;;;;2.03;0.98;;;;;;;22.98;46.26;101842.00;16126033;19;130943;-54
2023/08/17 01:24:49;;;;;;;3.95;1.30;;;;;;;22.95;46.33;101837.78;16119448;19;130995;-55
2023/08/17 01:30:14;;;;;;;2.17;1.08;;;;;;;22.95;46.28;101835.00;16118904;19;130274;-56
2023/08/17 01:35:45;;;;;;;2.33;1.02;;;;;;;22.94;46.36;101841.69;16117656;19;128921;-56
2023/08/17 01:41:15;;;;;;;1.42;1.00;;;;;;;22.94;46.38;101841.69;16120137;19;130201;-56
2023/08/17 01:46:37;;;;;;;2.35;1.00;;;;;;;22.93;46.34;101850.31;16119528;19;129305;-57
2023/08/17 01:52:00;;;;;;;2.05;1.05;;;;;;;22.93;46.32;101844.72;16118305;19;129543;-55
2023/08/17 01:57:22;;;;;;;2.88;1.20;;;;;;;22.91;46.52;101842.19;16116625;19;129595;-55
2023/08/17 02:02:44;;;;;;;3.42;1.08;;;;;;;22.89;46.23;101831.25;16116450;19;130564;-53
2023/08/17 02:08:07;;;;;;;4.22;1.10;;;;;;;22.91;46.19;101838.56;16116997;19;131607;-55
2023/08/17 02:13:29;;;;;;;3.28;1.10;;;;;;;22.88;46.34;101832.34;16114461;19;129821;-56
2023/08/17 02:18:51;;;;;;;2.92;1.00;;;;;;;22.89;46.36;101827.63;16115679;19;130583;-53
2023/08/17 02:24:13;;;;;;;2.40;0.90;;;;;;;22.87;46.31;101827.88;16113670;19;130302;-55
2023/08/17 02:29:35;;;;;;;1.80;1.00;;;;;;;22.87;46.01;101821.44;16118155;19;129817;-51
2023/08/17 02:34:57;;;;;;;1.77;1.00;;;;;;;22.87;46.19;101824.25;16114841;19;128951;-56
2023/08/17 02:40:19;;;;;;;3.67;1.15;;;;;;;22.86;46.20;101816.97;16109794;19;130221;-56
2023/08/17 02:45:41;;;;;;;3.17;1.00;;;;;;;22.86;46.18;101814.19;16117107;19;130082;-56
2023/08/17 02:51:02;;;;;;;1.20;0.77;;;;;;;22.85;46.22;101809.69;16114437;19;132692;-55
2023/08/17 02:56:25;;;;;;;1.83;0.80;;;;;;;22.85;46.13;101815.28;16110363;19;130286;-57
2023/08/17 03:01:47;;;;;;;1.95;0.90;;;;;;;22.83;46.22;101817.47;16110525;19;131255;-56
2023/08/17 03:07:09;;;;;;;3.67;0.82;;;;;;;22.83;46.17;101806.31;16109069;19;130105;-52
2023/08/17 03:12:30;;;;;;;4.07;1.00;;;;;;;22.83;45.96;101809.09;16108510;19;131067;-56
2023/08/17 03:17:52;;;;;;;1.20;0.80;;;;;;;22.81;45.89;101802.94;16111370;19;131529;-52
2023/08/17 03:23:14;;;;;;;3.92;1.10;;;;;;;22.80;45.91;101804.88;16101892;19;130680;-58
2023/08/17 03:28:36;;;;;;;3.30;0.80;;;;;;;22.80;46.22;101813.25;16102230;19;129419;-55
2023/08/17 03:34:00;;;;;;;1.45;0.80;;;;;;;22.80;46.19;101812.38;16102877;19;130332;-55
2023/08/17 03:39:22;;;;;;;2.00;0.90;;;;;;;22.80;46.01;101812.38;16103410;19;131633;-56
2023/08/17 03:44:44;;;;;;;2.40;1.00;;;;;;;22.79;46.11;101817.13;16107868;19;130674;-56
2023/08/17 03:50:06;;;;;;;2.10;1.02;;;;;;;22.78;46.10;101804.28;16110258;19;130420;-55
2023/08/17 03:55:28;;;;;;;2.05;0.80;;;;;;;22.78;46.13;101809.88;16106903;19;131312;-56
2023/08/17 04:00:51;;;;;;;2.38;1.10;;;;;;;22.78;45.92;101811.78;16110144;19;130152;-55
2023/08/17 04:06:13;;;;;;;2.30;1.00;;;;;;;22.78;46.15;101812.66;16110114;19;130113;-57
2023/08/17 04:11:36;;;;;;;2.15;0.85;;;;;;;22.77;46.11;101824.06;16108428;19;128943;-52
2023/08/17 04:16:58;;;;;;;2.95;1.17;;;;;;;22.77;46.02;101824.06;16109781;19;129775;-53
2023/08/17 04:22:20;;;;;;;2.50;0.82;;;;;;;22.77;46.00;101829.66;16122219;19;131200;-57
2023/08/17 04:27:42;;;;;;;3.13;0.93;;;;;;;22.76;45.94;101827.97;16124344;19;130318;-55
2023/08/17 04:33:04;;;;;;;1.95;0.75;;;;;;;22.76;46.03;101836.34;16124539;19;129687;-57
2023/08/17 04:38:26;;;;;;;2.67;1.20;;;;;;;22.74;45.84;101823.47;16123349;19;129575;-55
2023/08/17 04:43:49;;;;;;;2.83;0.88;;;;;;;22.74;45.90;101834.63;16124718;19;129715;-53
2023/08/17 04:49:11;;;;;;;2.03;0.98;;;;;;;22.73;45.87;101837.66;16126434;19;129349;-56
2023/08/17 04:54:33;;;;;;;2.08;0.85;;;;;;;22.71;46.10;101840.72;16125853;19;133577;-54
2023/08/17 04:59:55;;;;;;;2.70;0.98;;;;;;;22.72;45.64;101836.84;16125278;19;129587;-57
2023/08/17 05:05:17;;;;;;;2.22;0.95;;;;;;;22.72;46.08;101836.84;16120752;19;129813;-57
2023/08/17 05:10:39;;;;;;;2.03;0.80;;;;;;;22.72;46.23;101838.75;16122409;19;130564;-56
2023/08/17 05:16:01;;;;;;;2.53;0.90;;;;;;;22.70;46.17;101825.06;16124263;19;131077;-56
2023/08/17 05:21:23;;;;;;;3.83;0.98;;;;;;;22.70;46.29;101832.59;16122866;19;129729;-57
2023/08/17 05:26:45;;;;;;;1.75;0.90;;;;;;;22.70;45.71;101836.22;16120142;19;129627;-53
2023/08/17 05:32:07;;;;;;;1.95;0.90;;;;;;;22.69;46.23;101842.91;16116836;19;131295;-48
2023/08/17 05:37:29;;;;;;;1.58;1.00;;;;;;;22.69;45.83;101844.88;16120729;19;129338;-52
2023/08/17 05:42:51;;;;;;;1.77;0.75;;;;;;;22.69;46.11;101851.28;16123409;19;131201;-52
2023/08/17 05:48:13;;;;;;;2.20;0.70;;;;;;;22.68;45.97;101848.75;16119528;19;129566;-57
2023/08/17 05:53:35;;;;;;;1.85;0.73;;;;;;;22.67;46.24;101841.47;16119266;19;129964;-52
2023/08/17 05:58:57;;;;;;;3.72;0.93;;;;;;;22.67;45.94;101847.06;16119158;19;130981;-50
2023/08/17 06:04:20;;;;;;;2.53;1.05;;;;;;;22.66;45.90;101835.03;16120628;19;130964;-52
2023/08/17 06:09:42;;;;;;;1.35;0.77;;;;;;;22.66;45.97;101840.63;16119854;19;130018;-53
2023/08/17 06:15:05;;;;;;;2.15;0.73;;;;;;;22.66;46.02;101848.97;16118951;19;130437;-51
2023/08/17 06:20:26;;;;;;;2.50;0.93;;;;;;;22.65;45.69;101863.19;16120669;19;129492;-57
2023/08/17 06:25:48;;;;;;;2.15;0.88;;;;;;;22.64;46.13;101867.94;16116835;19;129244;-56
2023/08/17 06:31:14;;;;;;;2.72;0.75;;;;;;;22.65;45.84;101869.59;16121559;19;130541;-53
2023/08/17 06:36:39;;;;;;;1.17;0.70;;;;;;;22.63;45.81;101860.66;16114304;19;130705;-54
2023/08/17 06:42:01;;;;;;;4.07;0.80;;;;;;;22.63;45.81;101863.44;16119586;19;131026;-55
2023/08/17 06:47:23;;;;;;;7.57;1.05;;;;;;;22.63;45.87;101871.81;16122449;19;129876;-56
2023/08/17 06:52:45;;;;;;;2.15;1.00;;;;;;;22.63;46.07;101882.13;16120107;19;128879;-50
2023/08/17 06:58:07;;;;;;;1.98;0.65;;;;;;;22.62;45.58;101878.50;16120219;19;130300;-50
2023/08/17 07:03:29;;;;;;;1.90;0.80;;;;;;;22.61;45.65;101879.59;16120837;19;129669;-53
2023/08/17 07:08:52;;;;;;;2.47;1.10;;;;;;;22.62;45.42;101877.63;16117941;19;129118;-50
2023/08/17 07:14:14;;;;;;;2.80;1.00;;;;;;;22.62;45.95;101888.78;16116634;19;129655;-53
2023/08/17 07:19:36;;;;;;;1.73;0.70;;;;;;;22.61;46.16;101885.16;16116988;19;130007;-55
2023/08/17 07:25:18;;;;;;;1.83;0.70;;;;;;;22.59;45.87;101881.78;16113389;19;130578;-53
2023/08/17 07:30:40;;;;;;;2.47;0.60;;;;;;;22.59;45.86;101874.25;16110976;19;129955;-53
2023/08/17 07:36:03;;;;;;;4.18;1.00;;;;;;;22.60;45.85;101880.69;16117938;19;129554;-50
2023/08/17 07:41:25;;;;;;;3.20;1.00;;;;;;;22.59;45.63;101868.66;16113690;19;129437;-54
2023/08/17 07:46:47;;;;;;;3.38;0.82;;;;;;;22.63;45.76;101866.25;16110950;19;131088;-56
2023/08/17 07:52:09;;;;;;;4.82;0.95;;;;;;;22.70;45.95;101866.09;16110049;19;129482;-53
2023/08/17 07:57:31;;;;;;;3.75;1.00;;;;;;;22.74;45.58;101858.88;16122647;19;130578;-55
2023/08/17 08:02:53;;;;;;;2.17;1.17;;;;;;;22.77;45.67;101855.59;16129371;19;131415;-55
2023/08/17 08:08:17;;;;;;;4.03;1.00;;;;;;;22.82;45.45;101846.47;16124921;19;129390;-55
2023/08/17 08:13:39;;;;;;;4.55;1.10;;;;;;;22.86;45.35;101856.03;16126469;19;129477;-53
2023/08/17 08:19:01;;;;;;;2.05;0.90;;;;;;;22.90;45.37;101846.06;16125347;19;130334;-55
2023/08/17 08:24:23;;;;;;;2.05;0.93;;;;;;;22.96;45.37;101845.06;16124031;19;129054;-55
2023/08/17 08:29:58;;;;;;;4.07;0.90;;;;;;;22.98;45.42;101854.03;16124539;19;130419;-54
2023/08/17 08:35:22;;;;;;;1.30;0.70;;;;;;;22.99;45.54;101844.56;16124926;19;130340;-55
2023/08/17 08:40:46;;;;;;;3.08;1.00;;;;;;;22.96;45.93;101847.84;16122665;19;130731;-54
2023/08/17 08:46:09;;;;;;;3.90;1.13;;;;;;;22.95;45.50;101850.91;16120848;19;130537;-54
2023/08/17 08:51:34;;;;;;;2.95;0.90;;;;;;;22.94;45.64;101847.25;16117976;19;129266;-55
2023/08/17 08:57:03;;;;;;;1.42;0.98;;;;;;;22.92;45.39;101848.63;16121362;19;129545;-56
2023/08/17 09:02:25;;;;;;;1.77;0.80;;;;;;;22.91;45.71;101849.72;16122030;19;129601;-57
2023/08/17 09:07:49;;;;;;;4.47;1.15;;;;;;;22.89;45.76;101842.41;16121170;19;130952;-53
2023/08/17 09:13:11;;;;;;;2.70;1.35;;;;;;;22.87;45.73;101852.97;16119277;19;129923;-56
2023/08/17 09:18:35;;;;;;;2.55;1.23;;;;;;;22.85;45.85;101838.44;16123403;19;130033;-57
2023/08/17 09:24:00;;;;;;;4.30;1.45;;;;;;;22.86;45.83;101837.34;16122232;19;129827;-54
2023/08/17 09:29:22;;;;;;;3.97;1.50;;;;;;;22.87;45.92;101824.25;16121359;19;131394;-54
2023/08/17 09:34:44;;;;;;;2.25;1.20;;;;;;;22.88;45.64;101832.34;16121220;19;129825;-54
2023/08/17 09:40:10;;;;;;;2.78;1.20;;;;;;;22.91;45.83;101824.59;16120004;19;129651;-55
2023/08/17 09:45:33;;;;;;;2.65;1.23;;;;;;;22.92;45.41;101831.88;16118690;19;129501;-55
2023/08/17 09:50:58;;;;;;;3.25;1.35;;;;;;;22.92;45.95;101831.88;16119991;19;130312;-55
2023/08/17 09:56:21;;;;;;;;;;;;;;;22.89;45.82;101833.22;16121985;19;129133;-55
2023/08/17 10:01:45;;;;;;;3.30;1.33;;;;;;;22.94;45.76;101824.09;16119636;19;131143;-54
2023/08/17 10:07:10;;;;;;;2.97;1.38;;;;;;;22.92;45.84;101824.34;16120895;19;130032;-53
2023/08/17 10:12:38;;;;;;;2.60;1.40;;;;;;;22.93;45.92;101820.44;16121121;19;129352;-55
2023/08/17 10:18:15;;;;;;;2.25;1.30;;;;;;;22.96;45.79;101824.66;16119107;19;130149;-53
2023/08/17 10:23:38;;;;;;;4.95;1.92;;;;;;;22.94;45.86;101819.34;16119088;19;129451;-55
2023/08/17 10:29:04;;;;;;;4.50;2.10;;;;;;;22.94;45.81;101819.34;16116149;19;130259;-53
2023/08/17 10:34:34;;;;;;;4.90;1.92;;;;;;;22.94;45.60;101824.94;16108197;19;130231;-53
2023/08/17 10:39:56;;;;;;;5.45;1.73;;;;;;;22.95;45.88;101828.59;16118708;19;130666;-55
2023/08/17 10:45:35;;;;;;;6.18;1.65;;;;;;;22.96;45.79;101830.25;16118856;19;131906;-54
2023/08/17 10:51:03;;;;;;;7.47;1.63;;;;;;;22.95;45.91;101820.22;16117779;19;129649;-53
2023/08/17 10:56:28;;;;;;;4.05;1.65;;;;;;;22.95;45.80;101818.25;16114274;19;129900;-54
2023/08/17 11:01:51;;;;;;;3.55;1.60;;;;;;;22.94;45.93;101824.94;16115402;19;130558;-54
2023/08/17 11:07:15;;;;;;;7.07;1.70;;;;;;;22.94;45.96;101830.53;16115830;19;129649;-52
2023/08/17 11:12:38;;;;;;;3.13;1.80;;;;;;;22.94;45.95;101833.31;16111883;19;129414;-54
2023/08/17 11:18:00;;;;;;;3.47;1.70;;;;;;;22.95;46.00;101832.22;16110396;19;129458;-56
2023/08/17 11:23:23;;;;;;;5.30;1.60;;;;;;;22.95;46.24;101834.16;16111622;19;130551;-57
2023/08/17 11:28:47;;;;;;;7.17;1.80;;;;;;;22.94;45.72;101830.53;16113603;19;131311;-54
2023/08/17 11:34:15;;;;;;;3.28;1.65;;;;;;;22.96;46.07;101833.91;16108391;19;129664;-55
2023/08/17 11:39:37;;;;;;;3.40;1.70;;;;;;;22.94;46.09;101833.31;16104990;19;129372;-52
2023/08/17 11:44:59;;;;;;;4.00;1.70;;;;;;;22.95;46.15;101836.97;16105539;19;131960;-53
2023/08/17 11:50:21;;;;;;;4.43;2.10;;;;;;;22.95;46.35;101837.78;16106526;19;130695;-55
2023/08/17 11:55:43;;;;;;;4.82;1.73;;;;;;;22.95;46.16;101832.22;16112253;19;131071;-53
2023/08/17 12:01:09;;;;;;;3.47;1.70;;;;;;;22.95;45.89;101829.41;16106384;19;131858;-56
2023/08/17 12:06:31;;;;;;;;;;;;;;;22.93;46.16;101828.00;16108200;19;129610;-55
2023/08/17 12:12:00;;;;;;;4.30;2.00;;;;;;;22.96;46.41;101833.91;16110504;19;130315;-54
2023/08/17 12:17:21;;;;;;;4.82;1.80;;;;;;;22.95;46.10;101831.38;16112051;19;129314;-51
2023/08/17 12:22:44;;;;;;;2.55;1.38;;;;;;;22.97;46.21;101824.44;16109527;19;129778;-54
2023/08/17 12:28:06;;;;;;;3.20;1.55;;;;;;;22.99;46.55;101821.38;16108993;19;130430;-56
2023/08/17 12:33:28;;;;;;;2.90;1.77;;;;;;;23.00;46.34;101818.34;16110666;19;131924;-55
2023/08/17 12:38:50;;;;;;;3.83;1.90;;;;;;;23.01;46.25;101820.03;16109848;19;129854;-56
2023/08/17 12:44:13;;;;;;;2.70;1.67;;;;;;;23.02;46.29;101804.13;16122055;19;128982;-55
2023/08/17 12:49:38;;;;;;;2.40;1.65;;;;;;;23.03;46.13;101806.66;16124574;19;130620;-57
2023/08/17 12:55:01;;;;;;;4.82;1.90;;;;;;;23.02;46.08;101816.13;16124848;19;131662;-56
2023/08/17 13:00:22;;;;;;;3.70;2.03;;;;;;;23.03;46.32;101815.03;16124216;19;134005;-56
2023/08/17 13:05:44;;;;;;;2.67;1.60;;;;;;;23.03;46.22;101800.25;16122509;19;130119;-56
2023/08/17 13:11:06;;;;;;;4.00;2.17;;;;;;;23.04;46.30;101804.72;16123928;19;129583;-56
2023/08/17 13:16:28;;;;;;;5.10;2.50;;;;;;;23.03;46.23;101806.66;16120792;19;131332;-59
2023/08/17 13:21:50;;;;;;;3.58;2.38;;;;;;;23.03;46.25;101803.03;16122478;19;129737;-56
2023/08/17 13:27:12;;;;;;;3.45;2.25;;;;;;;23.03;46.11;101806.66;16122890;19;131039;-54
2023/08/17 13:32:35;;;;;;;4.22;2.30;;;;;;;23.04;46.38;101811.13;16122044;19;130280;-54
2023/08/17 13:37:57;;;;;;;4.00;2.20;;;;;;;23.04;46.34;101802.78;16114078;19;131343;-56
2023/08/17 13:43:19;;;;;;;3.25;2.25;;;;;;;23.05;46.57;101787.72;16118076;19;129822;-52
2023/08/17 13:48:41;;;;;;;4.03;2.17;;;;;;;23.05;46.40;101790.50;16118610;19;130445;-56
2023/08/17 13:54:03;;;;;;;3.72;2.50;;;;;;;23.04;46.48;101783.22;16117836;19;135962;-56
2023/08/17 13:59:25;;;;;;;4.85;2.60;;;;;;;23.05;46.65;101784.94;16115471;19;129932;-55
2023/08/17 14:04:47;;;;;;;5.05;2.60;;;;;;;23.06;46.33;101774.63;16118191;19;130446;-54
2023/08/17 14:10:10;;;;;;;6.18;2.75;;;;;;;23.05;46.69;101770.13;16113935;19;129918;-54
2023/08/17 14:15:42;;;;;;;5.47;2.47;;;;;;;23.05;46.10;101770.97;16118517;19;129453;-54
2023/08/17 14:21:04;;;;;;;9.27;2.58;;;;;;;23.04;46.56;101758.13;16120437;19;129443;-53
2023/08/17 14:26:26;;;;;;;6.35;2.97;;;;;;;23.04;46.48;101760.06;16115675;19;130537;-55
2023/08/17 14:31:50;;;;;;;7.30;2.90;;;;;;;23.04;46.58;101752.53;16117857;19;129982;-55
2023/08/17 14:37:16;;;;;;;7.38;2.90;;;;;;;23.04;46.51;101751.72;16117992;19;129405;-56
2023/08/17 14:42:38;;;;;;;5.90;2.83;;;;;;;23.03;46.46;101744.44;16117993;19;130878;-55
2023/08/17 14:48:00;;;;;;;5.25;3.15;;;;;;;23.02;46.78;101738.00;16117909;19;130693;-53
2023/08/17 14:53:22;;;;;;;6.22;3.03;;;;;;;23.02;46.68;101731.56;16114473;19;129831;-56
2023/08/17 14:58:44;;;;;;;4.43;3.30;;;;;;;23.01;46.46;101730.75;16116969;19;129433;-55
2023/08/17 15:04:06;;;;;;;5.95;3.10;;;;;;;23.01;46.90;101730.75;16114982;19;129375;-50
2023/08/17 15:09:28;;;;;;;7.65;3.05;;;;;;;23.00;47.01;101731.84;16115747;19;130191;-64
2023/08/17 15:14:50;;;;;;;4.10;2.72;;;;;;;23.00;46.78;101729.06;16115097;19;129857;-68
2023/08/17 15:20:12;;;;;;;9.95;3.85;;;;;;;22.99;46.89;101719.00;16114640;19;130231;-66
2023/08/17 15:25:34;;;;;;;6.28;3.10;;;;;;;22.98;46.60;101724.81;16112449;19;131192;-63
2023/08/17 15:31:02;;;;;;;11.70;3.67;;;;;;;22.97;47.10;101735.16;16114207;19;130373;-64
2023/08/17 15:36:26;;;;;;;5.60;3.55;;;;;;;22.95;46.81;101720.59;16106531;19;130285;-62
2023/08/17 15:41:48;;;;;;;6.25;3.42;;;;;;;22.94;46.98;101718.91;16110494;19;129499;-61
2023/08/17 15:47:10;;;;;;;4.55;3.22;;;;;;;22.94;47.09;101718.91;16111427;19;130690;-54
2023/08/17 15:52:32;;;;;;;5.45;3.25;;;;;;;22.94;46.86;101707.75;16111472;19;130991;-56
2023/08/17 15:57:54;;;;;;;10.45;4.00;;;;;;;22.94;46.95;101701.34;16111504;19;129537;-55
2023/08/17 16:03:16;;;;;;;7.10;3.65;;;;;;;22.93;47.01;101694.91;16110131;19;131678;-56
2023/08/17 16:08:38;;;;;;;7.22;3.70;;;;;;;22.93;46.92;101697.69;16113189;19;134666;-55
2023/08/17 16:14:07;;;;;;;7.10;3.55;;;;;;;22.92;46.92;101693.19;16111917;19;130761;-54
2023/08/17 16:19:29;;;;;;;5.03;3.33;;;;;;;22.92;47.04;101681.22;16122274;19;129744;-55
2023/08/17 16:24:51;;;;;;;7.85;3.70;;;;;;;22.91;46.99;101674.78;16126414;19;130318;-51
2023/08/17 16:30:13;;;;;;;8.20;3.55;;;;;;;22.91;46.94;101669.19;16123268;19;131700;-53
2023/08/17 16:35:36;;;;;;;9.02;3.30;;;;;;;22.91;46.95;101663.59;16127120;19;130608;-55
2023/08/17 16:40:58;;;;;;;5.38;3.58;;;;;;;22.91;47.23;101657.19;16123991;19;131176;-55
2023/08/17 16:46:19;;;;;;;5.57;3.35;;;;;;;22.91;47.06;101662.78;16123584;19;130166;-53
2023/08/17 16:51:42;;;;;;;8.35;3.17;;;;;;;22.90;47.06;101653.53;16127418;19;130608;-52
2023/08/17 16:57:04;;;;;;;4.18;3.33;;;;;;;22.90;47.09;101647.97;16120957;19;129499;-55
2023/08/17 17:02:25;;;;;;;5.18;3.35;;;;;;;22.89;47.30;101644.31;16120541;19;130938;-53
2023/08/17 17:07:47;;;;;;;5.57;3.30;;;;;;;22.89;47.02;101637.91;16119244;19;131099;-56
2023/08/17 17:13:10;;;;;;;4.90;3.25;;;;;;;22.88;47.26;101641.78;16116425;19;129165;-56
2023/08/17 17:18:32;;;;;;;5.85;3.80;;;;;;;22.88;47.13;101637.03;16120902;19;129270;-54
2023/08/17 17:23:54;;;;;;;8.10;3.38;;;;;;;22.88;47.43;101625.06;16123962;19;130040;-54
2023/08/17 17:29:16;;;;;;;5.97;3.47;;;;;;;22.88;47.33;101630.63;16116304;19;130370;-50
2023/08/17 17:34:38;;;;;;;7.40;3.33;;;;;;;22.88;47.20;101636.22;16117833;19;134409;-53
2023/08/17 17:40:00;;;;;;;5.97;3.60;;;;;;;22.87;47.23;101634.53;16033706;19;143196;-55
2023/08/17 17:45:22;;;;;;;5.30;3.25;;;;;;;22.85;47.19;101636.72;16115887;19;130098;-52
2023/08/17 17:50:44;;;;;;;5.25;3.13;;;;;;;22.84;47.00;101643.41;16113622;19;129904;-54
2023/08/17 17:56:10;;;;;;;5.30;3.60;;;;;;;22.84;47.49;101646.19;16119175;19;129609;-52
2023/08/17 18:01:33;;;;;;;6.90;3.88;;;;;;;22.81;47.47;101655.94;16116218;19;130629;-55
2023/08/17 18:06:55;;;;;;;5.38;3.50;;;;;;;22.80;47.33;101662.59;16119385;19;130748;-56
2023/08/17 18:12:16;;;;;;;6.25;3.80;;;;;;;22.79;47.54;101660.06;16121485;19;129296;-52
2023/08/17 18:17:39;;;;;;;6.45;4.43;;;;;;;22.78;47.44;101669.53;16120618;19;129710;-55
2023/08/17 18:23:01;;;;;;;5.00;3.88;;;;;;;22.78;47.56;101675.09;16120038;19;130650;-59
2023/08/17 18:28:23;;;;;;;5.82;3.72;;;;;;;22.76;47.59;101672.59;16120145;19;132216;-55
2023/08/17 18:33:45;;;;;;;7.03;3.80;;;;;;;22.76;47.64;101677.34;16119315;19;129839;-52
2023/08/17 18:39:07;;;;;;;8.02;4.35;;;;;;;22.74;47.60;101678.44;16113181;19;129643;-56
2023/08/17 18:44:30;;;;;;;6.93;3.92;;;;;;;22.73;47.57;101676.75;16115657;19;132149;-54
2023/08/17 18:49:52;;;;;;;6.45;4.00;;;;;;;22.73;47.59;101678.66;16117017;19;129384;-54
2023/08/17 18:55:14;;;;;;;6.53;4.10;;;;;;;22.71;47.48;101681.72;16115769;19;129806;-52
2023/08/17 19:00:36;;;;;;;7.07;4.03;;;;;;;22.70;47.97;101688.41;16115728;19;131040;-54
2023/08/17 19:05:58;;;;;;;5.07;4.30;;;;;;;22.70;47.61;101690.34;16114772;19;129784;-56
2023/08/17 19:11:20;;;;;;;6.07;3.80;;;;;;;22.70;47.72;101693.16;16115633;19;130714;-51
2023/08/17 19:16:42;;;;;;;7.10;4.55;;;;;;;22.68;47.82;101693.38;16117644;19;130827;-53
2023/08/17 19:22:04;;;;;;;7.47;4.20;;;;;;;22.68;47.35;101704.53;16116121;19;129451;-53
2023/08/17 19:27:27;;;;;;;6.85;4.32;;;;;;;22.67;47.75;101718.75;16110912;19;129836;-57
2023/08/17 19:32:57;;;;;;;5.35;4.10;;;;;;;22.67;47.49;101713.19;16107540;19;130169;-56
2023/08/17 19:38:19;;;;;;;4.40;4.00;;;;;;;22.66;47.74;101715.09;16108549;19;130240;-51
2023/08/17 19:43:41;;;;;;;6.72;4.28;;;;;;;22.66;47.57;101717.06;16113289;19;130459;-54
2023/08/17 19:49:04;;;;;;;5.55;4.00;;;;;;;22.65;47.56;101718.16;16105349;19;134480;-53
2023/08/17 19:54:25;;;;;;;4.95;4.15;;;;;;;22.66;47.91;101722.63;16106276;19;130278;-54
2023/08/17 19:59:47;;;;;;;7.32;4.43;;;;;;;22.65;48.08;101716.19;16100413;19;129912;-54
2023/08/17 20:05:10;;;;;;;6.38;4.45;;;;;;;22.65;47.97;101710.63;16109025;19;129303;-49
2023/08/17 20:10:31;;;;;;;6.72;3.90;;;;;;;22.65;47.69;101710.63;16108379;19;129514;-56
2023/08/17 20:15:54;;;;;;;8.35;4.30;;;;;;;22.64;47.94;101714.53;16105953;19;130411;-54
2023/08/17 20:21:16;;;;;;;6.70;4.68;;;;;;;22.64;48.21;101722.03;16107243;19;129617;-54
2023/08/17 20:26:38;;;;;;;7.45;4.45;;;;;;;22.63;47.86;101718.44;16106763;19;131216;-55
2023/08/17 20:32:00;;;;;;;6.65;4.15;;;;;;;22.63;47.92;101721.22;16110480;19;130218;-55
2023/08/17 20:37:22;;;;;;;6.15;4.43;;;;;;;22.63;47.95;101717.56;16107008;19;129784;-52
2023/08/17 20:42:44;;;;;;;7.82;4.35;;;;;;;22.63;47.91;101717.56;16106087;19;131776;-52
2023/08/17 20:48:06;;;;;;;7.75;4.43;;;;;;;22.62;48.02;101716.72;16103060;19;129219;-54
2023/08/17 20:53:28;;;;;;;6.28;4.50;;;;;;;22.61;48.23;101709.47;16100509;19;130155;-56
2023/08/17 20:58:50;;;;;;;7.60;4.05;;;;;;;22.61;47.93;101709.47;16102117;19;130452;-56
2023/08/17 21:04:12;;;;;;;6.72;4.20;;;;;;;22.61;47.95;101714.19;16116874;19;129517;-55
2023/08/17 21:09:34;;;;;;;6.35;4.53;;;;;;;22.61;48.00;101703.88;16121477;19;130788;-54
2023/08/17 21:14:57;;;;;;;6.25;4.13;;;;;;;22.60;47.97;101702.19;16118077;19;130671;-52
2023/08/17 21:20:19;;;;;;;5.95;4.18;;;;;;;22.59;47.89;101701.34;16120597;19;129486;-54
2023/08/17 21:25:48;;;;;;;5.80;4.45;;;;;;;22.60;48.09;101704.97;16122508;19;131280;-50
2023/08/17 21:31:10;;;;;;;6.35;4.20;;;;;;;22.58;48.01;101696.88;16118674;19;129778;-52
2023/08/17 21:36:32;;;;;;;6.72;4.00;;;;;;;22.58;48.03;101694.09;16117995;19;129155;-55
2023/08/17 21:41:54;;;;;;;7.28;4.63;;;;;;;22.57;48.17;101703.56;16114810;19;129876;-56
2023/08/17 21:47:16;;;;;;;7.82;4.40;;;;;;;22.57;48.31;101694.31;16117126;19;130302;-55
2023/08/17 21:52:38;;;;;;;9.55;4.55;;;;;;;22.56;47.89;101698.22;16120125;19;131149;-55
2023/08/17 21:58:00;;;;;;;8.85;4.90;;;;;;;22.58;48.51;101701.59;16116874;19;129665;-53
2023/08/17 22:03:22;;;;;;;8.65;5.32;;;;;;;22.58;48.05;101696.03;16114531;19;130315;-53
2023/08/17 22:08:44;;;;;;;8.00;5.22;;;;;;;22.56;48.20;101684.28;16116774;19;129659;-56
2023/08/17 22:14:06;;;;;;;8.10;5.00;;;;;;;22.56;48.10;101685.13;16114885;19;129377;-55
2023/08/17 22:19:29;;;;;;;6.25;4.63;;;;;;;22.55;48.25;101679.78;16118588;19;130698;-54
2023/08/17 22:24:51;;;;;;;6.72;4.88;;;;;;;22.55;48.13;101682.56;16116305;19;131945;-55
2023/08/17 22:30:13;;;;;;;8.82;5.10;;;;;;;22.55;48.58;101679.78;16114825;19;130898;-54
2023/08/17 22:35:35;;;;;;;8.38;4.65;;;;;;;22.54;48.38;101681.75;16114066;19;129743;-55
2023/08/17 22:40:56;;;;;;;5.47;4.68;;;;;;;22.54;48.19;101678.09;16118272;19;130106;-54
2023/08/17 22:46:18;;;;;;;7.85;4.78;;;;;;;22.55;48.32;101665.84;16115733;19;129877;-51
2023/08/17 22:51:41;;;;;;;6.97;5.40;;;;;;;22.54;48.21;101669.72;16118905;19;130357;-54
2023/08/17 22:57:03;;;;;;;7.32;5.13;;;;;;;22.53;48.24;101657.75;16118594;19;133408;-54
2023/08/17 23:02:25;;;;;;;7.63;5.28;;;;;;;22.53;48.01;101657.75;16117013;19;130974;-55
2023/08/17 23:07:47;;;;;;;7.13;5.20;;;;;;;22.53;48.03;101645.72;16110529;19;129352;-55
2023/08/17 23:13:09;;;;;;;8.18;5.22;;;;;;;22.53;48.21;101645.72;16110919;19;129692;-53
2023/08/17 23:18:31;;;;;;;7.75;5.60;;;;;;;22.52;48.42;101639.31;16110338;19;130264;-51
2023/08/17 23:23:53;;;;;;;7.45;4.88;;;;;;;22.52;48.41;101632.91;16110037;19;130667;-55
2023/08/17 23:29:15;;;;;;;7.00;5.45;;;;;;;22.51;48.62;101636.81;16112242;19;129442;-54
2023/08/17 23:34:37;;;;;;;6.75;5.18;;;;;;;22.51;48.70;101632.06;16105041;19;130476;-55
2023/08/17 23:39:59;;;;;;;8.57;5.88;;;;;;;22.51;48.25;101625.66;16112186;19;130613;-55
2023/08/17 23:45:21;;;;;;;8.65;4.90;;;;;;;22.51;48.48;101620.06;16110190;19;131579;-55
2023/08/17 23:50:43;;;;;;;7.88;5.32;;;;;;;22.50;48.20;101618.38;16113799;19;129703;-57
2023/08/17 23:56:06;;;;;;;8.68;5.07;;;;;;;22.50;48.25;101623.97;16111157;19;129494;-53
